createdAt,value
2023-02-03T00:02:04.481Z,4.32
2023-02-03T00:04:31.559Z,4.34
2023-02-03T00:06:58.595Z,4.25
2023-02-03T00:09:25.990Z,4.30
2023-02-03T00:11:54.069Z,4.20
2023-02-03T00:14:21.086Z,4.19
2023-02-03T00:16:48.163Z,4.22
2023-02-03T00:19:17.326Z,4.18
2023-02-03T00:21:44.881Z,4.17
2023-02-03T00:24:12.103Z,4.02
2023-02-03T00:26:43.756Z,4.13
2023-02-03T00:29:11.555Z,4.06
2023-02-03T00:31:38.587Z,4.06
2023-02-03T00:34:05.861Z,4.13
2023-02-03T00:36:33.134Z,4.17
2023-02-03T00:39:01.060Z,4.21
2023-02-03T00:41:31.690Z,4.16
2023-02-03T00:43:58.874Z,4.06
2023-02-03T00:46:25.957Z,4.15
2023-02-03T00:48:52.959Z,4.14
2023-02-03T00:51:20.068Z,4.09
2023-02-03T00:53:48.081Z,4.14
2023-02-03T00:56:15.410Z,4.15
2023-02-03T00:58:42.637Z,4.17
2023-02-03T01:01:10.487Z,4.19
2023-02-03T01:03:38.238Z,4.22
2023-02-03T01:06:15.386Z,4.21
2023-02-03T01:08:42.872Z,4.19
2023-02-03T01:11:12.277Z,4.17
2023-02-03T01:13:39.825Z,4.12
2023-02-03T01:16:10.243Z,4.17
2023-02-03T01:18:38.082Z,4.14
2023-02-03T01:21:07.636Z,4.14
2023-02-03T01:23:35.665Z,4.11
2023-02-03T01:26:07.906Z,4.08
2023-02-03T01:28:35.533Z,4.05
2023-02-03T01:31:13.948Z,4.01
2023-02-03T01:33:41.706Z,3.95
2023-02-03T01:36:10.098Z,3.87
2023-02-03T01:38:38.515Z,3.80
2023-02-03T01:41:07.749Z,3.75
2023-02-03T01:43:41.185Z,3.66
2023-02-03T01:46:16.958Z,3.58
2023-02-03T01:48:44.512Z,3.51
2023-02-03T01:51:11.486Z,3.46
2023-02-03T01:53:39.542Z,3.46
2023-02-03T01:56:07.758Z,3.40
2023-02-03T01:58:37.376Z,3.36
2023-02-03T02:01:04.474Z,3.32
2023-02-03T02:03:37.133Z,3.29
2023-02-03T02:06:10.263Z,3.29
2023-02-03T02:08:42.526Z,3.32
2023-02-03T02:11:09.648Z,3.31
2023-02-03T02:13:37.552Z,3.33
2023-02-03T02:16:39.365Z,3.32
2023-02-03T02:19:30.009Z,3.30
2023-02-03T02:22:14.945Z,3.31
2023-02-03T02:25:11.125Z,3.30
2023-02-03T02:28:09.780Z,3.29
2023-02-03T02:30:59.812Z,3.28
2023-02-03T02:33:44.164Z,3.24
2023-02-03T02:36:30.555Z,3.24
2023-02-03T02:39:19.265Z,3.27
2023-02-03T02:42:01.677Z,3.28
2023-02-03T02:45:11.128Z,3.30
2023-02-03T02:47:39.149Z,3.31
2023-02-03T02:50:07.164Z,3.32
2023-02-03T02:52:39.196Z,3.33
2023-02-03T02:55:19.746Z,3.34
2023-02-03T02:57:48.329Z,3.34
2023-02-03T03:00:18.584Z,3.35
2023-02-03T03:02:45.526Z,3.35
2023-02-03T03:05:13.010Z,3.37
2023-02-03T03:07:54.172Z,3.40
2023-02-03T03:10:27.840Z,3.43
2023-02-03T03:13:01.948Z,3.44
2023-02-03T03:15:32.927Z,3.48
2023-02-03T03:18:14.465Z,3.45
2023-02-03T03:20:44.484Z,3.45
2023-02-03T03:23:19.224Z,3.48
2023-02-03T03:26:04.658Z,3.49
2023-02-03T03:28:40.674Z,3.50
2023-02-03T03:31:07.912Z,3.47
2023-02-03T03:33:34.946Z,3.47
2023-02-03T03:36:25.713Z,3.45
2023-02-03T03:39:22.674Z,3.44
2023-02-03T03:42:01.575Z,3.42
2023-02-03T03:44:37.814Z,3.38
2023-02-03T03:47:15.744Z,3.30
2023-02-03T03:49:47.332Z,3.30
2023-02-03T03:52:20.430Z,3.30
2023-02-03T03:54:50.143Z,3.28
2023-02-03T03:57:23.499Z,3.26
2023-02-03T03:59:51.409Z,3.24
2023-02-03T04:02:20.958Z,3.19
2023-02-03T04:04:49.366Z,3.21
2023-02-03T04:07:16.617Z,3.17
2023-02-03T04:09:43.679Z,3.16
2023-02-03T04:12:24.028Z,3.14
2023-02-03T04:14:51.129Z,3.14
2023-02-03T04:17:20.442Z,3.14
2023-02-03T04:19:48.686Z,3.12
2023-02-03T04:22:15.467Z,3.12
2023-02-03T04:24:42.404Z,3.12
2023-02-03T04:27:09.365Z,3.12
2023-02-03T04:29:36.317Z,3.14
2023-02-03T04:32:03.352Z,3.14
2023-02-03T04:34:30.391Z,3.15
2023-02-03T04:36:57.355Z,3.18
2023-02-03T04:39:24.379Z,3.18
2023-02-03T04:41:51.334Z,3.16
2023-02-03T04:44:18.409Z,3.09
2023-02-03T04:46:45.311Z,3.06
2023-02-03T04:49:12.315Z,3.08
2023-02-03T04:51:39.317Z,3.02
2023-02-03T04:54:06.365Z,3.05
2023-02-03T04:56:33.305Z,3.07
2023-02-03T04:59:00.244Z,3.10
2023-02-03T05:01:27.373Z,3.11
2023-02-03T05:03:54.369Z,3.12
2023-02-03T05:06:33.128Z,3.13
2023-02-03T05:09:00.132Z,3.17
2023-02-03T05:11:27.266Z,3.16
2023-02-03T05:13:54.905Z,3.16
2023-02-03T05:16:22.023Z,3.18
2023-02-03T05:18:49.061Z,3.20
2023-02-03T05:21:16.235Z,3.22
2023-02-03T05:23:43.265Z,3.24
2023-02-03T05:26:10.234Z,3.28
2023-02-03T05:28:37.303Z,3.26
2023-02-03T05:31:04.637Z,3.27
2023-02-03T05:33:32.716Z,3.30
2023-02-03T05:35:59.774Z,3.27
2023-02-03T05:38:26.842Z,3.27
2023-02-03T05:41:12.623Z,3.30
2023-02-03T05:43:39.595Z,3.36
2023-02-03T05:46:07.631Z,3.38
2023-02-03T05:48:35.075Z,3.37
2023-02-03T05:51:02.252Z,3.42
2023-02-03T05:53:29.500Z,3.43
2023-02-03T05:55:56.427Z,3.40
2023-02-03T05:58:23.378Z,3.40
2023-02-03T06:00:50.398Z,3.39
2023-02-03T06:03:17.438Z,3.40
2023-02-03T06:05:45.189Z,3.39
2023-02-03T06:08:12.298Z,3.46
2023-02-03T06:10:39.351Z,3.61
2023-02-03T06:13:15.336Z,3.62
2023-02-03T06:15:42.930Z,3.68
2023-02-03T06:18:10.035Z,3.71
2023-02-03T06:20:37.218Z,3.62
2023-02-03T06:23:04.231Z,3.73
2023-02-03T06:25:32.855Z,3.78
2023-02-03T06:28:00.398Z,3.83
2023-02-03T06:30:27.845Z,3.83
2023-02-03T06:32:55.466Z,3.80
2023-02-03T06:35:22.597Z,3.79
2023-02-03T06:37:49.792Z,3.82
2023-02-03T06:40:16.796Z,3.87
2023-02-03T06:42:47.793Z,3.89
2023-02-03T06:45:15.866Z,3.90
2023-02-03T06:47:44.117Z,3.93
2023-02-03T06:50:12.532Z,3.98
2023-02-03T06:52:39.570Z,3.97
2023-02-03T06:55:07.374Z,3.94
2023-02-03T06:57:34.895Z,3.95
2023-02-03T07:00:02.155Z,3.94
2023-02-03T07:02:29.287Z,3.91
2023-02-03T07:04:56.214Z,3.91
2023-02-03T07:07:23.198Z,3.90
2023-02-03T07:09:50.202Z,3.94
2023-02-03T07:12:17.218Z,3.93
2023-02-03T07:14:44.262Z,3.91
2023-02-03T07:17:11.332Z,3.95
2023-02-03T07:19:38.432Z,3.97
2023-02-03T07:22:05.343Z,3.90
2023-02-03T07:24:32.355Z,3.97
2023-02-03T07:26:59.339Z,3.96
2023-02-03T07:29:26.354Z,4.02
2023-02-03T07:31:53.422Z,4.02
2023-02-03T07:34:20.484Z,4.02
2023-02-03T07:36:47.455Z,4.06
2023-02-03T07:39:14.425Z,4.10
2023-02-03T07:41:41.358Z,4.16
2023-02-03T07:44:09.617Z,4.22
2023-02-03T07:46:39.995Z,4.30
2023-02-03T07:49:07.248Z,4.27
2023-02-03T07:51:34.221Z,4.30
2023-02-03T07:54:01.155Z,4.36
2023-02-03T07:56:28.305Z,4.40
2023-02-03T07:58:55.252Z,4.46
2023-02-03T08:01:22.240Z,4.52
2023-02-03T08:03:49.267Z,4.56
2023-02-03T08:06:16.622Z,4.60
2023-02-03T08:08:44.173Z,4.61
2023-02-03T08:11:11.487Z,4.64
2023-02-03T08:13:38.501Z,4.73
2023-02-03T08:16:05.963Z,4.77
2023-02-03T08:18:33.015Z,4.84
2023-02-03T08:21:00.872Z,4.89
2023-02-03T08:23:27.784Z,4.91
2023-02-03T08:25:54.751Z,4.97
2023-02-03T08:28:21.817Z,4.98
2023-02-03T08:30:48.929Z,5.00
2023-02-03T08:33:15.936Z,5.08
2023-02-03T08:35:47.618Z,5.08
2023-02-03T08:38:14.865Z,5.14
2023-02-03T08:40:41.913Z,5.18
2023-02-03T08:43:09.294Z,5.23
2023-02-03T08:45:36.356Z,5.27
2023-02-03T08:48:03.463Z,5.33
2023-02-03T08:50:30.970Z,5.37
2023-02-03T08:52:58.306Z,5.46
2023-02-03T08:55:25.314Z,5.44
2023-02-03T08:57:52.342Z,5.44
2023-02-03T09:00:19.932Z,5.45
2023-02-03T09:02:46.976Z,5.59
2023-02-03T09:05:14.282Z,5.65
2023-02-03T09:07:41.254Z,5.80
2023-02-03T09:10:08.675Z,5.82
2023-02-03T09:12:35.646Z,5.91
2023-02-03T09:15:02.601Z,5.96
2023-02-03T09:17:29.574Z,6.01
2023-02-03T09:19:56.509Z,6.07
2023-02-03T09:22:23.513Z,6.17
2023-02-03T09:24:51.594Z,6.28
2023-02-03T09:27:18.607Z,6.38
2023-02-03T09:29:45.531Z,6.54
2023-02-03T09:32:15.122Z,6.68
2023-02-03T09:34:42.588Z,6.86
2023-02-03T09:37:10.338Z,6.90
2023-02-03T09:39:37.483Z,6.93
2023-02-03T09:42:25.921Z,7.23
2023-02-03T09:45:07.894Z,7.31
2023-02-03T09:47:39.541Z,7.43
2023-02-03T09:50:12.754Z,7.66
2023-02-03T09:52:42.064Z,7.86
2023-02-03T09:55:20.577Z,7.92
2023-02-03T09:57:57.278Z,8.12
2023-02-03T10:00:30.409Z,8.00
2023-02-03T10:03:26.724Z,8.33
2023-02-03T10:05:59.324Z,8.52
2023-02-03T10:08:54.641Z,8.42
2023-02-03T10:11:37.496Z,8.57
2023-02-03T10:14:35.331Z,8.59
2023-02-03T10:17:08.693Z,8.95
2023-02-03T10:19:57.361Z,8.96
2023-02-03T10:22:28.854Z,9.03
2023-02-03T10:25:21.117Z,9.14
2023-02-03T10:27:49.464Z,9.25
2023-02-03T10:30:33.420Z,9.67
2023-02-03T10:33:11.439Z,9.70
2023-02-03T10:36:10.693Z,10.10
2023-02-03T10:39:01.609Z,10.29
2023-02-03T10:41:30.437Z,10.47
2023-02-03T10:43:58.743Z,10.47
2023-02-03T10:46:35.696Z,10.58
2023-02-03T10:49:02.768Z,10.84
2023-02-03T10:51:55.911Z,11.06
2023-02-03T10:54:48.923Z,11.39
2023-02-03T10:57:16.745Z,11.32
2023-02-03T10:59:47.175Z,11.61
2023-02-03T11:02:30.181Z,11.89
2023-02-03T11:05:11.785Z,12.13
2023-02-03T11:07:38.773Z,12.22
2023-02-03T11:10:28.789Z,12.34
2023-02-03T11:13:21.497Z,12.47
2023-02-03T11:16:04.114Z,12.70
2023-02-03T11:18:55.700Z,12.82
2023-02-03T11:21:26.552Z,12.85
2023-02-03T11:24:02.864Z,12.91
2023-02-03T11:27:14.973Z,13.06
2023-02-03T11:29:47.950Z,13.21
2023-02-03T11:32:23.611Z,13.32
2023-02-03T11:34:59.219Z,13.42
2023-02-03T11:37:39.541Z,13.71
2023-02-03T11:40:11.670Z,13.67
2023-02-03T11:42:43.738Z,13.82
2023-02-03T11:45:28.466Z,13.88
2023-02-03T11:48:24.696Z,13.58
2023-02-03T11:50:57.752Z,13.61
2023-02-03T11:53:42.327Z,13.53
2023-02-03T11:56:20.893Z,13.27
2023-02-03T11:58:59.913Z,13.28
2023-02-03T12:13:35.571Z,12.09
2023-02-03T12:16:22.334Z,11.86
2023-02-03T12:19:16.001Z,11.81
2023-02-03T12:22:07.135Z,11.66
2023-02-03T12:24:53.443Z,11.63
2023-02-03T12:27:41.818Z,11.87
2023-02-03T12:30:28.078Z,11.77
2023-02-03T12:33:00.689Z,11.75
2023-02-03T12:35:54.425Z,11.70
2023-02-03T12:38:27.588Z,11.54
2023-02-03T12:41:04.684Z,11.54
2023-02-03T12:43:49.402Z,11.56
2023-02-03T12:46:35.602Z,11.25
2023-02-03T12:49:05.537Z,11.48
2023-02-03T12:51:56.772Z,11.31
2023-02-03T12:54:33.687Z,11.41
2023-02-03T12:57:27.283Z,11.43
2023-02-03T13:00:06.195Z,11.40
2023-02-03T13:02:48.709Z,11.51
2023-02-03T13:05:25.117Z,11.63
2023-02-03T13:08:06.705Z,11.54
2023-02-03T13:10:44.133Z,11.50
2023-02-03T13:13:15.966Z,11.47
2023-02-03T13:15:46.867Z,11.56
2023-02-03T13:18:32.884Z,11.66
2023-02-03T13:21:00.273Z,11.63
2023-02-03T13:23:27.493Z,11.55
2023-02-03T13:27:00.953Z,11.65
2023-02-03T13:29:33.813Z,11.63
2023-02-03T13:32:34.703Z,11.50
2023-02-03T13:35:18.673Z,11.65
2023-02-03T13:38:10.408Z,11.23
2023-02-03T13:41:02.453Z,11.22
2023-02-03T13:43:51.562Z,10.98
2023-02-03T13:46:32.306Z,10.78
2023-02-03T13:49:02.477Z,10.62
2023-02-03T13:51:46.381Z,10.54
2023-02-03T13:54:26.671Z,10.42
2023-02-03T13:57:05.585Z,10.26
2023-02-03T13:59:39.044Z,10.16
2023-02-03T14:02:24.623Z,10.09
2023-02-03T14:04:54.626Z,10.07
2023-02-03T14:07:25.068Z,9.96
2023-02-03T14:10:13.736Z,9.89
2023-02-03T14:12:52.575Z,9.69
2023-02-03T14:15:33.753Z,9.63
2023-02-03T14:18:04.439Z,9.58
2023-02-03T14:20:40.545Z,9.46
2023-02-03T14:23:07.530Z,9.53
2023-02-03T14:25:59.377Z,9.60
2023-02-03T14:28:30.411Z,9.48
2023-02-03T14:31:10.987Z,9.36
2023-02-03T14:34:13.427Z,9.11
2023-02-03T14:36:42.470Z,9.16
2023-02-03T14:39:18.348Z,9.09
2023-02-03T14:42:03.315Z,8.99
2023-02-03T14:45:29.237Z,8.84
2023-02-03T14:48:11.076Z,9.01
2023-02-03T14:50:55.256Z,8.88
2023-02-03T14:53:34.964Z,8.81
2023-02-03T14:56:07.602Z,8.86
2023-02-03T14:58:45.177Z,8.82
2023-02-03T15:01:37.980Z,8.72
2023-02-03T15:04:13.879Z,8.71
2023-02-03T15:06:43.987Z,8.78
2023-02-03T15:09:30.561Z,8.69
2023-02-03T15:11:57.556Z,8.72
2023-02-03T15:14:33.392Z,8.70
2023-02-03T15:17:02.835Z,8.76
2023-02-03T15:19:39.249Z,9.02
2023-02-03T15:22:38.642Z,8.93
2023-02-03T15:25:17.554Z,8.89
2023-02-03T15:27:44.541Z,8.87
2023-02-03T15:30:28.373Z,8.93
2023-02-03T15:33:05.704Z,8.93
2023-02-03T15:35:36.799Z,8.94
2023-02-03T15:38:09.201Z,9.06
2023-02-03T15:40:42.472Z,8.90
2023-02-03T15:43:19.754Z,8.86
2023-02-03T15:46:06.549Z,8.85
2023-02-03T15:48:42.354Z,8.75
2023-02-03T15:51:16.657Z,8.77
2023-02-03T15:53:54.332Z,8.60
2023-02-03T15:56:31.152Z,8.65
2023-02-03T15:58:59.021Z,8.50
2023-02-03T16:01:28.277Z,8.45
2023-02-03T16:03:57.692Z,8.53
2023-02-03T16:06:39.435Z,8.41
2023-02-03T16:09:23.960Z,8.30
2023-02-03T16:11:51.064Z,8.20
2023-02-03T16:14:33.939Z,8.33
2023-02-03T16:17:05.427Z,8.17
2023-02-03T16:19:41.450Z,8.35
2023-02-03T16:22:28.803Z,8.28
2023-02-03T16:24:56.736Z,8.02
2023-02-03T16:27:26.884Z,8.05
2023-02-03T16:30:13.223Z,7.99
2023-02-03T16:32:59.135Z,7.96
2023-02-03T16:35:45.047Z,8.02
2023-02-03T16:38:36.178Z,8.00
2023-02-03T16:41:31.637Z,7.91
2023-02-03T16:44:17.375Z,7.92
2023-02-03T16:47:04.062Z,7.93
2023-02-03T16:49:49.545Z,7.98
2023-02-03T16:52:16.795Z,7.87
2023-02-03T16:54:44.317Z,7.85
2023-02-03T16:57:11.317Z,7.66
2023-02-03T16:59:38.305Z,7.79
2023-02-03T17:02:05.373Z,7.65
2023-02-03T17:04:33.615Z,7.53
2023-02-03T17:07:00.636Z,7.33
2023-02-03T17:09:27.611Z,7.33
2023-02-03T17:11:55.094Z,7.27
2023-02-03T17:14:22.214Z,7.22
2023-02-03T17:16:49.590Z,7.06
2023-02-03T17:19:16.773Z,7.05
2023-02-03T17:21:43.795Z,7.02
2023-02-03T17:24:10.863Z,6.96
2023-02-03T17:26:37.908Z,6.94
2023-02-03T17:29:04.917Z,6.95
2023-02-03T17:31:33.147Z,6.92
2023-02-03T17:34:00.995Z,6.90
2023-02-03T17:36:28.045Z,6.91
2023-02-03T17:55:03.979Z,6.92
2023-02-03T17:57:32.355Z,7.04
2023-02-03T18:00:01.179Z,7.03
2023-02-03T18:02:28.270Z,7.16
2023-02-03T18:04:55.217Z,7.15
2023-02-03T18:07:22.365Z,7.38
2023-02-03T18:09:49.521Z,7.42
2023-02-03T18:12:16.962Z,7.13
2023-02-03T18:14:43.974Z,7.27
2023-02-03T18:17:11.001Z,7.38
2023-02-03T18:19:38.314Z,7.41
2023-02-03T18:22:05.938Z,7.36
2023-02-03T18:24:33.170Z,7.38
2023-02-03T18:27:00.970Z,7.45
2023-02-03T18:29:28.669Z,7.49
2023-02-03T18:31:55.685Z,7.56
2023-02-03T18:34:22.653Z,7.42
2023-02-03T18:36:49.811Z,7.38
2023-02-03T18:39:18.122Z,7.32
2023-02-03T18:41:45.084Z,7.22
2023-02-03T18:44:12.238Z,7.15
2023-02-03T18:46:39.392Z,7.21
2023-02-03T18:49:09.691Z,7.11
2023-02-03T18:51:36.967Z,7.16
2023-02-03T18:54:04.729Z,7.03
2023-02-03T18:56:35.772Z,7.02
2023-02-03T18:59:09.266Z,7.13
2023-02-03T19:01:38.974Z,7.13
2023-02-03T19:04:06.979Z,7.26
2023-02-03T19:06:35.304Z,7.30
2023-02-03T19:09:03.286Z,7.10
2023-02-03T19:11:30.301Z,7.18
2023-02-03T19:13:57.405Z,7.07
2023-02-03T19:16:24.352Z,7.22
2023-02-03T19:18:51.422Z,7.22
2023-02-03T19:21:18.490Z,7.40
2023-02-03T19:23:45.525Z,7.29
2023-02-03T19:26:12.625Z,7.34
2023-02-03T19:28:41.053Z,7.34
2023-02-03T19:31:11.795Z,7.41
2023-02-03T19:33:39.122Z,7.40
2023-02-03T19:36:07.601Z,7.49
2023-02-03T19:38:35.110Z,7.45
2023-02-03T19:41:02.718Z,7.41
2023-02-03T19:43:32.507Z,7.41
2023-02-03T19:46:00.199Z,7.56
2023-02-03T19:48:27.308Z,7.58
2023-02-03T19:50:54.326Z,7.49
2023-02-03T19:53:21.806Z,7.41
2023-02-03T19:55:48.854Z,7.70
2023-02-03T19:58:16.106Z,7.67
2023-02-03T20:00:44.017Z,7.62
2023-02-03T20:03:11.288Z,7.73
2023-02-03T20:05:38.839Z,7.70
2023-02-03T20:08:06.230Z,7.68
2023-02-03T20:10:33.580Z,7.64
2023-02-03T20:13:01.277Z,7.55
2023-02-03T20:15:28.488Z,7.56
2023-02-03T20:17:55.500Z,7.51
2023-02-03T20:20:22.886Z,7.37
2023-02-03T20:22:50.299Z,7.31
2023-02-03T20:25:17.456Z,7.46
2023-02-03T20:27:44.552Z,7.40
2023-02-03T20:30:12.539Z,7.51
2023-02-03T20:32:39.677Z,7.59
2023-02-03T20:35:07.511Z,7.50
2023-02-03T20:37:36.509Z,7.61
2023-02-03T20:40:10.228Z,7.60
2023-02-03T20:42:37.348Z,7.54
2023-02-03T20:45:12.769Z,7.50
2023-02-03T20:47:39.816Z,7.46
2023-02-03T20:50:13.016Z,7.48
2023-02-03T20:52:40.028Z,7.48
2023-02-03T20:55:12.879Z,7.63
2023-02-03T20:57:40.299Z,7.62
2023-02-03T21:00:19.148Z,7.67
2023-02-03T21:03:06.033Z,7.74
2023-02-03T21:05:36.797Z,7.77
2023-02-03T21:08:20.100Z,7.77
2023-02-03T21:10:48.390Z,7.78
2023-02-03T21:13:22.314Z,7.76
2023-02-03T21:15:51.211Z,7.64
2023-02-03T21:18:40.468Z,7.68
2023-02-03T21:21:25.142Z,7.73
2023-02-03T21:23:53.339Z,7.75
2023-02-03T21:26:27.468Z,7.78
2023-02-03T21:28:59.300Z,7.75
2023-02-03T21:31:32.240Z,7.78
2023-02-03T21:34:04.582Z,7.72
2023-02-03T21:36:35.566Z,7.76
2023-02-03T21:39:07.877Z,7.77
2023-02-03T21:41:35.512Z,7.75
2023-02-03T21:44:02.474Z,7.73
2023-02-03T21:46:33.088Z,7.72
2023-02-03T21:49:01.815Z,7.72
2023-02-03T21:51:39.598Z,7.67
2023-02-03T21:54:25.496Z,7.64
2023-02-03T21:56:54.197Z,7.59
2023-02-03T21:59:29.718Z,7.58
2023-02-03T22:02:00.076Z,7.55
2023-02-03T22:04:28.863Z,7.50
2023-02-03T22:06:56.565Z,7.41
2023-02-03T22:09:25.374Z,7.40
2023-02-03T22:11:52.951Z,7.39
2023-02-03T22:14:23.227Z,7.37
2023-02-03T22:16:50.808Z,7.34
2023-02-03T22:19:17.897Z,7.28
2023-02-03T22:21:45.182Z,7.24
2023-02-03T22:24:12.306Z,7.26
2023-02-03T22:26:39.323Z,7.21
2023-02-03T22:29:06.257Z,7.16
2023-02-03T22:31:33.498Z,7.14
2023-02-03T22:34:00.570Z,7.14
2023-02-03T22:36:27.573Z,7.12
2023-02-03T22:38:54.570Z,7.11
2023-02-03T22:41:21.792Z,7.12
2023-02-03T22:43:48.936Z,7.18
2023-02-03T22:46:15.928Z,7.10
2023-02-03T22:48:43.004Z,7.09
2023-02-03T22:51:10.056Z,7.03
2023-02-03T22:53:37.091Z,6.98
2023-02-03T22:56:04.280Z,6.93
2023-02-03T22:58:31.295Z,6.84
2023-02-03T23:00:58.271Z,6.76
2023-02-03T23:03:25.251Z,6.67
2023-02-03T23:05:52.253Z,6.60
2023-02-03T23:08:19.238Z,6.54
2023-02-03T23:10:46.299Z,6.53
2023-02-03T23:13:13.263Z,6.50
2023-02-03T23:15:40.309Z,6.46
2023-02-03T23:18:07.283Z,6.41
2023-02-03T23:20:34.343Z,6.37
2023-02-03T23:23:01.402Z,6.39
2023-02-03T23:25:28.414Z,6.33
2023-02-03T23:27:55.397Z,6.29
2023-02-03T23:30:22.456Z,6.24
2023-02-03T23:32:49.395Z,6.24
2023-02-03T23:35:34.892Z,6.28
2023-02-03T23:38:01.894Z,6.30
2023-02-03T23:40:29.396Z,6.33
2023-02-03T23:42:56.636Z,6.35
2023-02-03T23:45:23.524Z,6.16
2023-02-03T23:47:50.494Z,6.18
2023-02-03T23:50:19.164Z,6.23
2023-02-03T23:52:46.722Z,6.22
2023-02-03T23:55:16.527Z,6.28
2023-02-03T23:57:43.697Z,6.27
